Time;durP1;ratioP1;P1;durP2;ratioP2;P2;SDS_P1;SDS_P2;PMS_P1;PMS_P2;Temp;Humidity;BMP_temperature;BMP_pressure;BME280_temperature;BME280_humidity;BME280_pressure;Samples;Min_cycle;Max_cycle;Signal;HPM_P1;HPM_P2
2022/10/29 00:00:55;;;;;;;6.22;2.65;;;15.10;99.90;;;14.39;100.00;101193.41;4119699;28;20107;-78
2022/10/29 00:02:56;;;;;;;7.30;3.05;;;15.10;99.90;;;14.42;100.00;101194.94;4103195;29;20035;-78
2022/10/29 00:04:57;;;;;;;9.75;3.00;;;15.10;99.90;;;14.36;100.00;101190.28;4119803;28;20105;-78
2022/10/29 00:06:58;;;;;;;10.18;3.15;;;15.10;99.90;;;14.36;100.00;101199.09;4113371;28;20038;-78
2022/10/29 00:08:59;;;;;;;7.68;2.80;;;15.00;99.90;;;14.31;100.00;101187.25;4119415;28;20026;-78
2022/10/29 00:11:06;;;;;;;12.75;3.10;;;15.00;99.90;;;14.36;100.00;101185.81;4120508;28;20023;-78
2022/10/29 00:13:07;;;;;;;7.13;3.47;;;15.00;99.90;;;14.32;100.00;101187.16;4103606;29;20082;-78
2022/10/29 00:15:08;;;;;;;8.20;3.13;;;15.00;99.90;;;14.35;100.00;101180.66;4103340;29;20019;-77
2022/10/29 00:17:09;;;;;;;7.75;2.83;;;15.00;99.90;;;14.33;100.00;101194.13;4120622;28;20110;-78
2022/10/29 00:19:10;;;;;;;8.80;2.97;;;15.00;99.90;;;14.33;100.00;101190.63;4120619;28;20030;-77
2022/10/29 00:21:14;;;;;;;8.68;3.10;;;15.00;99.90;;;14.33;100.00;101182.66;4120720;28;20031;-78
2022/10/29 00:23:15;;;;;;;11.75;3.17;;;15.00;99.90;;;14.30;100.00;101178.50;4103317;29;20030;-78
2022/10/29 00:25:16;;;;;;;9.27;3.25;;;15.00;99.90;;;14.27;100.00;101173.53;4103264;29;20043;-78
2022/10/29 00:27:17;;;;;;;8.45;3.20;;;15.00;99.90;;;14.32;100.00;101180.97;4120247;28;20037;-79
2022/10/29 00:29:18;;;;;;;9.13;3.13;;;15.00;99.90;;;14.28;100.00;101175.16;4120760;28;20082;-78
2022/10/29 00:31:19;;;;;;;8.55;3.50;;;15.00;99.90;;;14.32;100.00;101178.31;4103154;29;20098;-78
2022/10/29 00:33:20;;;;;;;10.43;3.65;;;15.00;99.90;;;14.31;100.00;101169.53;4103357;29;20059;-78
2022/10/29 00:35:21;;;;;;;8.82;3.28;;;15.00;99.90;;;14.33;100.00;101180.84;4120133;28;20053;-78
2022/10/29 00:37:22;;;;;;;5.88;2.80;;;15.00;99.90;;;14.41;100.00;101174.69;4119126;28;20034;-78
2022/10/29 00:39:23;;;;;;;6.70;3.38;;;15.10;99.90;;;14.44;100.00;101163.72;4111790;28;20027;-78
2022/10/29 00:41:27;;;;;;;10.75;2.60;;;15.10;99.90;;;14.49;100.00;101174.66;4102947;29;20082;-78
2022/10/29 00:43:29;;;;;;;10.07;3.63;;;15.10;99.90;;;14.50;100.00;101167.50;4087063;29;20503;-78
2022/10/29 00:45:30;;;;;;;5.78;2.80;;;15.20;99.90;;;14.58;100.00;101181.59;4086949;29;20039;-78
2022/10/29 00:47:35;;;;;;;9.43;3.50;;;15.20;99.90;;;14.55;100.00;101171.31;4112349;28;20030;-78
2022/10/29 00:49:39;;;;;;;6.85;3.00;;;15.20;99.90;;;14.45;100.00;101157.41;4119014;28;20122;-78
2022/10/29 00:51:41;;;;;;;5.20;3.05;;;15.20;99.90;;;14.55;100.00;101168.66;4117982;28;20053;-78
2022/10/29 00:53:52;;;;;;;8.73;3.80;;;15.20;99.90;;;14.57;100.00;101173.81;4119003;28;20042;-78
2022/10/29 00:55:53;;;;;;;7.85;3.08;;;15.20;99.90;;;14.54;100.00;101174.16;4118683;28;20030;-78
2022/10/29 00:57:55;;;;;;;9.07;3.40;;;15.20;99.90;;;14.49;100.00;101163.19;4120071;28;20025;-78
2022/10/29 00:59:56;;;;;;;13.38;3.65;;;15.20;99.90;;;14.55;100.00;101170.47;4120318;28;20513;-78
2022/10/29 01:01:57;;;;;;;10.70;3.53;;;15.20;99.90;;;14.55;100.00;101159.84;4120114;28;20502;-78
2022/10/29 01:03:59;;;;;;;12.73;4.32;;;15.20;99.90;;;14.61;100.00;101164.47;4119062;28;20078;-78
2022/10/29 01:06:02;;;;;;;11.48;4.10;;;15.30;99.90;;;14.65;100.00;101168.47;4120115;28;20034;-78
2022/10/29 01:08:04;;;;;;;6.55;3.30;;;15.30;99.90;;;14.68;100.00;101168.13;4118717;28;20058;-78
2022/10/29 01:10:06;;;;;;;9.88;4.03;;;15.40;99.90;;;14.71;100.00;101165.13;4103066;28;20507;-78
2022/10/29 01:12:33;;;;;;;7.28;3.22;;;15.40;99.90;;;14.78;100.00;101168.75;4102670;29;20082;-78
2022/10/29 01:15:05;;;;;;;6.45;3.42;;;15.50;99.90;;;14.79;100.00;101165.06;4120196;28;20039;-78
2022/10/29 01:17:39;;;;;;;14.10;5.18;;;15.50;99.90;;;14.77;100.00;101154.63;4118694;28;20034;-78
2022/10/29 01:20:04;;;;;;;7.75;3.65;;;15.50;99.90;;;14.85;100.00;101156.41;4120578;28;20389;-78
2022/10/29 01:22:37;;;;;;;6.05;3.63;;;15.50;99.90;;;14.84;100.00;101160.88;4115939;28;20111;-78
2022/10/29 01:25:01;;;;;;;7.03;3.75;;;15.50;99.90;;;14.84;100.00;101152.13;4101035;28;20040;-78
2022/10/29 01:27:35;;;;;;;9.57;4.38;;;15.60;99.90;;;14.89;100.00;101155.06;4118564;28;20145;-78
2022/10/29 01:29:55;;;;;;;5.38;3.20;;;15.60;99.90;;;14.90;100.00;101146.13;4120169;28;20047;-78
2022/10/29 01:32:17;;;;;;;7.95;3.83;;;15.60;99.90;;;14.92;100.00;101144.09;4118665;28;20030;-78
2022/10/29 01:34:41;;;;;;;6.97;3.33;;;15.60;99.90;;;14.92;100.00;101133.47;4118858;28;20047;-78
2022/10/29 01:37:02;;;;;;;10.50;3.97;;;15.60;99.90;;;14.90;100.00;101127.53;4102632;29;20040;-78
2022/10/29 01:39:31;;;;;;;7.25;3.42;;;15.60;99.90;;;14.94;100.00;101134.13;4107784;28;20035;-78
2022/10/29 01:41:56;;;;;;;6.72;3.63;;;15.60;99.90;;;14.96;100.00;101138.25;4119641;28;20367;-78
2022/10/29 01:44:18;;;;;;;9.57;3.30;;;15.70;99.90;;;14.97;100.00;101149.72;4119939;28;20030;-78
2022/10/29 01:46:47;;;;;;;7.82;3.47;;;15.70;99.90;;;14.93;100.00;101140.44;4119577;28;20058;-78
2022/10/29 01:48:53;;;;;;;10.88;4.28;;;15.70;99.90;;;15.00;100.00;101137.91;4103085;28;20043;-78
2022/10/29 01:50:59;;;;;;;9.75;3.58;;;15.70;99.90;;;15.00;100.00;101140.56;4118700;28;20058;-78
2022/10/29 01:53:03;;;;;;;6.45;3.28;;;15.70;99.90;;;15.04;100.00;101140.06;4118546;28;20061;-78
2022/10/29 01:55:05;;;;;;;8.90;3.85;;;15.70;99.90;;;15.00;100.00;101125.44;4118711;28;20394;-78
2022/10/29 01:57:38;;;;;;;8.20;4.00;;;15.80;99.90;;;15.14;100.00;101139.84;4118217;28;20038;-78
2022/10/29 01:59:39;;;;;;;5.70;3.80;;;15.80;99.90;;;15.15;100.00;101136.97;4102322;29;20530;-78
2022/10/29 02:02:11;;;;;;;9.50;3.92;;;15.80;99.90;;;15.19;100.00;101127.66;4102572;28;20035;-78
2022/10/29 02:04:30;;;;;;;8.45;3.80;;;15.90;99.90;;;15.21;100.00;101120.34;4105202;29;20027;-78
2022/10/29 02:07:24;;;;;;;9.48;3.80;;;15.90;99.90;;;15.23;100.00;101117.50;4122641;28;20030;-78
2022/10/29 02:09:42;;;;;;;8.60;4.50;;;15.90;99.90;;;15.19;100.00;101095.78;4122438;28;20069;-78
2022/10/29 02:11:51;;;;;;;5.65;3.50;;;15.90;99.90;;;15.23;100.00;101105.03;4121482;28;20039;-78
2022/10/29 02:14:11;;;;;;;7.45;4.65;;;15.90;99.90;;;15.24;100.00;101103.19;4105251;29;20031;-78
2022/10/29 02:16:14;;;;;;;8.77;5.25;;;15.90;99.90;;;15.21;100.00;101092.94;4122379;28;20134;-78
2022/10/29 02:18:16;;;;;;;8.27;4.20;;;15.90;99.90;;;15.19;100.00;101082.50;4122652;28;20026;-78
2022/10/29 02:20:17;;;;;;;11.70;5.47;;;15.90;99.90;;;15.14;100.00;101079.50;4121250;28;20023;-78
2022/10/29 02:22:18;;;;;;;5.82;3.90;;;15.90;99.90;;;15.15;100.00;101083.84;4122280;28;20023;-78
2022/10/29 02:24:19;;;;;;;11.55;4.50;;;15.90;99.90;;;15.12;100.00;101088.66;4121230;28;20058;-78
2022/10/29 02:26:20;;;;;;;10.32;4.68;;;15.80;99.90;;;15.00;100.00;101080.28;4105031;29;20032;-78
2022/10/29 02:28:21;;;;;;;11.43;5.05;;;15.80;99.90;;;15.09;100.00;101091.69;4122108;28;20383;-78
2022/10/29 02:30:22;;;;;;;13.73;4.45;;;15.80;99.90;;;15.14;100.00;101092.00;4120969;28;20038;-78
2022/10/29 02:32:23;;;;;;;16.55;5.28;;;15.80;99.90;;;15.10;100.00;101083.53;4122229;28;20053;-78
2022/10/29 02:34:24;;;;;;;13.05;5.05;;;15.80;99.90;;;15.15;100.00;101088.31;4121021;28;20027;-78
2022/10/29 02:36:24;;;;;;;12.18;4.97;;;15.80;99.90;;;15.16;100.00;101079.34;4122050;28;20568;-78
2022/10/29 02:38:25;;;;;;;9.98;5.38;;;15.90;99.90;;;15.17;100.00;101065.06;4120902;28;20026;-78
2022/10/29 02:40:26;;;;;;;9.95;4.63;;;15.90;99.90;;;15.20;100.00;101064.72;4117209;28;20031;-78
2022/10/29 02:42:27;;;;;;;14.52;5.43;;;15.90;99.90;;;15.17;100.00;101060.56;4104668;29;20023;-78
2022/10/29 02:44:28;;;;;;;13.30;5.75;;;15.90;99.90;;;15.23;100.00;101059.84;4120599;28;20031;-78
2022/10/29 02:46:30;;;;;;;11.48;5.30;;;15.90;99.90;;;15.26;100.00;101069.31;4120686;28;20026;-78
2022/10/29 02:48:31;;;;;;;12.55;5.65;;;15.90;99.90;;;15.25;100.00;101057.03;4121810;28;20058;-78
2022/10/29 02:50:32;;;;;;;9.35;4.38;;;15.90;99.90;;;15.27;100.00;101058.50;4120823;28;20030;-78
2022/10/29 02:52:32;;;;;;;11.27;5.60;;;16.00;99.90;;;15.26;100.00;101058.69;4121952;28;20035;-78
2022/10/29 02:54:33;;;;;;;10.18;5.72;;;16.00;99.90;;;15.29;100.00;101053.81;4121966;28;20031;-78
2022/10/29 02:56:34;;;;;;;13.68;5.25;;;16.00;99.90;;;15.29;100.00;101040.53;4120200;28;20530;-78
2022/10/29 02:58:35;;;;;;;13.63;5.63;;;16.00;99.90;;;15.32;100.00;101042.03;4104763;29;20019;-78
2022/10/29 03:00:36;;;;;;;16.23;6.05;;;16.00;99.90;;;15.34;100.00;101045.31;4104529;29;20058;-78
2022/10/29 03:02:38;;;;;;;14.20;6.05;;;16.00;99.90;;;15.32;100.00;101026.06;4104777;29;20562;-78
2022/10/29 03:04:40;;;;;;;9.55;5.07;;;16.00;99.90;;;15.31;100.00;101027.91;4121818;28;20035;-78
2022/10/29 03:06:40;;;;;;;11.10;6.22;;;16.00;99.90;;;15.33;100.00;101025.88;4120549;28;20667;-78
2022/10/29 03:08:42;;;;;;;10.90;5.93;;;16.00;99.90;;;15.33;100.00;101017.06;4121975;28;20039;-78
2022/10/29 03:10:43;;;;;;;12.40;5.03;;;16.00;99.90;;;15.32;100.00;101015.44;4121381;28;20027;-78
2022/10/29 03:12:43;;;;;;;12.48;5.32;;;16.00;99.90;;;15.31;100.00;101019.94;4121595;28;20391;-78
2022/10/29 03:14:44;;;;;;;13.13;6.35;;;16.00;99.90;;;15.30;100.00;101026.25;4120448;28;20058;-78
2022/10/29 03:16:45;;;;;;;15.90;6.53;;;16.00;99.90;;;15.27;100.00;101023.09;4121786;28;20031;-78
2022/10/29 03:18:46;;;;;;;15.57;6.97;;;16.00;99.90;;;15.26;100.00;101024.94;4120088;28;20434;-78
2022/10/29 03:20:47;;;;;;;16.50;5.78;;;15.90;99.90;;;15.24;100.00;101028.78;4121291;28;20034;-78
2022/10/29 03:22:48;;;;;;;14.57;5.82;;;15.90;99.90;;;15.25;100.00;101020.66;4120173;28;20454;-78
2022/10/29 03:24:48;;;;;;;11.70;5.38;;;15.90;99.90;;;15.22;100.00;101009.53;4104456;29;20034;-78
2022/10/29 03:26:49;;;;;;;10.40;5.60;;;15.90;99.90;;;15.21;100.00;101003.41;4103940;29;20031;-78
2022/10/29 03:28:50;;;;;;;12.48;5.60;;;15.90;99.90;;;15.21;100.00;101011.38;4121263;28;20053;-78
2022/10/29 03:30:51;;;;;;;16.70;6.15;;;15.90;99.90;;;15.17;100.00;101011.91;4104428;28;20400;-78
2022/10/29 03:32:52;;;;;;;14.07;6.82;;;15.90;99.90;;;15.20;100.00;101023.00;4121600;28;20030;-78
2022/10/29 03:34:53;;;;;;;11.52;6.28;;;15.90;99.90;;;15.15;100.00;101004.13;4120038;28;20022;-78
2022/10/29 03:36:53;;;;;;;13.15;6.32;;;15.90;99.90;;;15.19;100.00;100993.97;4121056;28;20043;-78
2022/10/29 03:38:54;;;;;;;16.30;6.03;;;15.90;99.90;;;15.27;100.00;101004.50;4121190;28;20026;-78
2022/10/29 03:40:55;;;;;;;22.35;6.65;;;15.90;99.90;;;15.24;100.00;100989.75;4104874;28;20027;-78
2022/10/29 03:42:56;;;;;;;16.40;6.35;;;15.90;99.90;;;15.23;100.00;100980.13;4125990;28;20471;-78
2022/10/29 03:45:01;;;;;;;17.80;5.32;;;15.90;99.90;;;15.17;100.00;100974.72;4120785;28;20077;-78
2022/10/29 03:47:02;;;;;;;16.05;5.43;;;15.90;99.90;;;15.13;100.00;100973.41;4119868;28;20031;-78
2022/10/29 03:49:02;;;;;;;12.32;5.57;;;15.80;99.90;;;15.12;100.00;100982.38;4104111;29;20470;-78
2022/10/29 03:51:05;;;;;;;12.93;5.93;;;15.80;99.90;;;15.09;100.00;100970.28;4119863;28;20050;-78
2022/10/29 03:53:07;;;;;;;12.57;6.15;;;15.80;99.90;;;15.15;100.00;100988.16;4103626;29;20447;-78
2022/10/29 03:55:08;;;;;;;12.57;6.00;;;15.80;99.90;;;15.14;100.00;100980.41;4121393;28;20065;-78
2022/10/29 03:57:09;;;;;;;15.20;6.05;;;15.80;99.90;;;15.19;100.00;100988.66;4119615;28;20030;-78
2022/10/29 03:59:10;;;;;;;16.38;6.75;;;15.90;99.90;;;15.22;100.00;100988.28;4104128;29;20023;-78
2022/10/29 04:01:11;;;;;;;17.40;6.93;;;15.90;99.90;;;15.23;100.00;100987.28;4120552;28;20067;-78
2022/10/29 04:03:12;;;;;;;14.38;7.20;;;15.90;99.90;;;15.25;100.00;100987.91;4119683;28;20027;-78
2022/10/29 04:05:13;;;;;;;13.80;6.70;;;15.90;99.90;;;15.25;100.00;100993.25;4103674;29;20454;-78
2022/10/29 04:07:14;;;;;;;14.30;7.18;;;15.90;99.90;;;15.27;100.00;100996.53;4119736;28;20019;-78
2022/10/29 04:09:14;;;;;;;10.50;6.50;;;15.90;99.90;;;15.23;100.00;100995.25;4120671;28;20042;-78
2022/10/29 04:11:15;;;;;;;15.93;6.65;;;15.90;99.90;;;15.26;100.00;101001.03;4103250;29;20026;-78
2022/10/29 04:13:17;;;;;;;12.98;6.57;;;15.90;99.90;;;15.28;100.00;101004.34;4103508;29;20027;-78
2022/10/29 04:15:18;;;;;;;9.50;6.03;;;15.90;99.90;;;15.29;100.00;100999.84;4119418;28;20026;-78
2022/10/29 04:17:19;;;;;;;12.20;5.88;;;16.00;99.90;;;15.27;100.00;101000.03;4120650;28;20023;-78
2022/10/29 04:19:20;;;;;;;12.32;7.80;;;15.90;99.90;;;15.22;100.00;100989.13;4119264;28;20035;-78
2022/10/29 04:21:21;;;;;;;14.48;8.13;;;16.00;99.90;;;15.21;100.00;100992.78;4103440;29;20038;-78
2022/10/29 04:23:22;;;;;;;15.65;6.95;;;15.90;99.90;;;15.21;100.00;100991.94;4103805;29;20031;-78
2022/10/29 04:25:22;;;;;;;12.48;6.82;;;15.90;99.90;;;15.18;100.00;100995.78;4103243;28;20047;-78
2022/10/29 04:27:23;;;;;;;15.50;6.70;;;15.90;99.90;;;15.12;100.00;100993.84;4119923;28;20031;-78
2022/10/29 04:29:24;;;;;;;12.10;5.93;;;15.80;99.90;;;15.08;100.00;100994.41;4119327;28;20494;-78
2022/10/29 04:31:25;;;;;;;11.02;5.43;;;15.80;99.90;;;15.02;100.00;101005.72;4103181;29;20028;-78
2022/10/29 04:33:26;;;;;;;16.10;6.47;;;15.70;99.90;;;14.91;100.00;100999.00;4103227;29;20090;-78
2022/10/29 04:35:28;;;;;;;13.52;6.75;;;15.70;99.90;;;14.89;100.00;101008.97;4120218;28;20039;-78
2022/10/29 04:37:29;;;;;;;14.68;5.88;;;15.60;99.90;;;14.83;100.00;101010.53;4120443;28;20058;-78
2022/10/29 04:39:29;;;;;;;16.52;7.30;;;15.50;99.90;;;14.77;100.00;100994.47;4119297;28;20466;-78
2022/10/29 04:41:31;;;;;;;18.98;7.60;;;15.50;99.90;;;14.69;100.00;100994.53;4120040;28;20035;-78
2022/10/29 04:43:31;;;;;;;15.85;7.22;;;15.40;99.90;;;14.66;100.00;101008.16;4118791;28;20039;-78
2022/10/29 04:45:32;;;;;;;20.52;8.07;;;15.30;99.90;;;14.58;100.00;101000.22;4102979;28;20050;-78
2022/10/29 04:47:33;;;;;;;19.83;8.55;;;15.30;99.90;;;14.56;100.00;101003.06;4119084;28;20545;-78
2022/10/29 04:49:34;;;;;;;14.95;7.65;;;15.20;99.90;;;14.50;100.00;100987.00;4120138;28;20507;-78
2022/10/29 04:51:35;;;;;;;21.17;7.78;;;15.20;99.90;;;14.42;100.00;100973.78;4118870;28;20067;-78
2022/10/29 04:53:39;;;;;;;16.73;7.13;;;15.20;99.90;;;14.46;100.00;100988.34;4120214;28;20398;-78
2022/10/29 04:55:40;;;;;;;14.75;6.95;;;15.10;99.90;;;14.40;100.00;100993.38;4119772;28;20034;-78
2022/10/29 04:57:41;;;;;;;12.48;7.35;;;15.10;99.90;;;14.35;100.00;100993.06;4120011;28;20034;-78
2022/10/29 04:59:42;;;;;;;16.40;7.07;;;15.10;99.90;;;14.32;100.00;100996.06;4119888;28;20081;-78
2022/10/29 05:01:43;;;;;;;20.02;9.02;;;15.00;99.90;;;14.24;100.00;100974.03;4120159;28;20027;-78
2022/10/29 05:03:44;;;;;;;15.43;7.63;;;15.00;99.90;;;14.27;100.00;100994.91;4119096;28;20035;-78
2022/10/29 05:05:44;;;;;;;12.95;7.80;;;14.90;99.90;;;14.20;100.00;100978.03;4120054;28;20038;-78
2022/10/29 05:07:46;;;;;;;14.02;7.45;;;14.90;99.90;;;14.18;100.00;100982.69;4118716;28;20379;-78
2022/10/29 05:09:46;;;;;;;19.08;8.38;;;14.90;99.90;;;14.13;100.00;100975.22;4103052;29;20059;-78
2022/10/29 05:11:47;;;;;;;23.52;8.27;;;14.80;99.90;;;14.06;100.00;100974.28;4118634;28;20459;-78
2022/10/29 05:13:48;;;;;;;18.60;8.98;;;14.80;99.90;;;14.08;100.00;100988.19;4120029;28;20031;-78
2022/10/29 05:15:52;;;;;;;20.17;8.52;;;14.70;99.90;;;14.03;100.00;100987.88;4118652;28;20510;-78
2022/10/29 05:17:54;;;;;;;18.20;8.55;;;14.80;99.90;;;14.07;100.00;101014.88;4118846;28;20098;-78
2022/10/29 05:19:54;;;;;;;18.98;9.77;;;14.70;99.90;;;14.03;100.00;101005.63;4118880;28;20043;-78
2022/10/29 05:21:55;;;;;;;18.77;9.32;;;14.70;99.90;;;14.07;100.00;101017.53;4118739;28;20515;-78
2022/10/29 05:23:56;;;;;;;17.90;8.98;;;14.70;99.90;;;14.00;100.00;100998.84;4120106;28;20031;-78
2022/10/29 05:25:57;;;;;;;16.92;8.88;;;14.70;99.90;;;13.96;100.00;100994.03;4119870;28;20490;-78
2022/10/29 05:28:08;;;;;;;15.95;8.52;;;14.70;99.90;;;13.99;100.00;100989.22;4119799;28;20055;-78
2022/10/29 05:30:09;;;;;;;14.00;8.23;;;14.70;99.90;;;14.01;100.00;101003.13;4118480;28;20031;-78
2022/10/29 05:32:10;;;;;;;15.18;8.32;;;14.70;99.90;;;14.01;100.00;101010.28;4118670;28;20042;-78
2022/10/29 05:34:11;;;;;;;20.88;8.82;;;14.70;99.90;;;13.96;100.00;101004.66;4119876;28;20034;-78
2022/10/29 05:36:12;;;;;;;18.50;7.82;;;14.60;99.90;;;13.90;100.00;101014.13;4119748;28;20031;-78
2022/10/29 05:38:14;;;;;;;16.00;7.93;;;14.60;99.90;;;13.88;100.00;101016.13;4120620;28;20394;-78
2022/10/29 05:40:15;;;;;;;21.90;9.95;;;14.60;99.90;;;13.87;100.00;101011.81;4121657;28;20118;-78
2022/10/29 05:42:16;;;;;;;20.95;9.48;;;14.60;99.90;;;13.87;100.00;101017.13;4121644;28;20023;-78
2022/10/29 05:44:17;;;;;;;18.05;9.60;;;14.60;99.90;;;13.92;100.00;101022.72;4122737;28;20486;-78
2022/10/29 05:46:18;;;;;;;18.80;9.38;;;14.60;99.90;;;13.92;100.00;101022.72;4121383;28;20026;-78
2022/10/29 05:48:18;;;;;;;16.98;9.13;;;14.60;99.90;;;13.92;100.00;101016.63;4122582;28;20494;-78
2022/10/29 05:50:20;;;;;;;20.08;9.25;;;14.60;99.90;;;13.91;100.00;101025.56;4122881;28;20498;-78
2022/10/29 05:52:21;;;;;;;21.25;9.23;;;14.60;99.90;;;13.84;100.00;101020.94;4123046;28;20033;-78
2022/10/29 05:54:21;;;;;;;18.25;8.48;;;14.60;99.90;;;13.84;100.00;101018.28;4122780;28;20490;-78
2022/10/29 05:56:22;;;;;;;12.88;7.97;;;14.60;99.90;;;13.81;100.00;101015.97;4122386;28;20105;-78
2022/10/29 05:58:23;;;;;;;13.48;8.80;;;14.50;99.90;;;13.83;100.00;101015.78;4121715;28;20031;-78
2022/10/29 06:00:27;;;;;;;16.02;9.07;;;14.60;99.90;;;13.83;100.00;101006.00;4122954;28;20105;-78
2022/10/29 06:02:28;;;;;;;21.70;10.60;;;14.60;99.90;;;13.91;100.00;101022.91;4121539;28;20081;-78
2022/10/29 06:04:28;;;;;;;18.23;9.77;;;14.60;99.90;;;13.88;100.00;101012.63;4105241;29;20024;-78
2022/10/29 06:06:30;;;;;;;18.02;10.75;;;14.60;99.90;;;13.93;100.00;101013.78;4105512;29;20035;-78
2022/10/29 06:08:30;;;;;;;18.98;9.55;;;14.60;99.90;;;13.91;100.00;101014.94;4122605;28;20466;-78
2022/10/29 06:10:32;;;;;;;23.38;9.73;;;14.60;99.90;;;13.92;100.00;101012.13;4121329;28;20035;-78
2022/10/29 06:12:33;;;;;;;21.35;10.10;;;14.60;99.90;;;13.91;100.00;101005.19;4121409;28;20063;-78
2022/10/29 06:14:34;;;;;;;16.85;8.48;;;14.60;99.90;;;13.95;100.00;101000.34;4121287;28;20529;-78
2022/10/29 06:16:35;;;;;;;18.58;9.55;;;14.60;99.90;;;13.92;100.00;100992.75;4122699;28;20086;-78
2022/10/29 06:18:36;;;;;;;14.70;8.80;;;14.60;99.90;;;13.94;100.00;100996.03;4121331;28;20023;-78
2022/10/29 06:20:37;;;;;;;15.63;9.18;;;14.60;99.90;;;13.94;100.00;101001.34;4122340;28;20027;-78
2022/10/29 06:22:39;;;;;;;14.68;8.80;;;14.60;99.90;;;13.87;100.00;100993.25;4121006;28;20026;-78
2022/10/29 06:24:40;;;;;;;15.45;9.18;;;14.60;99.90;;;13.90;100.00;101007.97;4105581;29;20036;-78
2022/10/29 06:26:40;;;;;;;14.00;9.07;;;14.60;99.90;;;13.89;100.00;101001.03;4118267;28;20031;-77
2022/10/29 06:28:41;;;;;;;17.52;9.52;;;14.60;99.90;;;13.86;100.00;101003.03;4121378;28;20052;-77
2022/10/29 06:30:49;;;;;;;21.63;9.30;;;14.50;99.90;;;13.87;100.00;100995.91;4120730;28;20038;-78
2022/10/29 06:32:50;;;;;;;19.80;10.20;;;14.60;99.90;;;13.82;100.00;100996.41;4121315;28;20034;-78
2022/10/29 06:34:51;;;;;;;15.52;9.07;;;14.50;99.90;;;13.83;100.00;100999.88;4117363;28;20082;-77
2022/10/29 06:36:52;;;;;;;23.23;10.85;;;14.50;99.90;;;13.77;100.00;100997.91;4118773;28;20035;-77
2022/10/29 06:38:53;;;;;;;24.02;11.27;;;14.50;99.90;;;13.74;100.00;100990.28;4119884;28;20054;-78
2022/10/29 06:40:54;;;;;;;23.42;10.85;;;14.50;99.90;;;13.72;100.00;100997.59;4103899;29;20090;-78
2022/10/29 06:43:05;;;;;;;18.90;9.50;;;14.40;99.90;;;13.76;100.00;101006.88;4113537;28;20026;-78
2022/10/29 06:45:07;;;;;;;15.52;9.48;;;14.40;99.90;;;13.66;100.00;100992.97;4103286;29;20094;-78
2022/10/29 06:47:08;;;;;;;25.42;10.45;;;14.40;99.90;;;13.71;100.00;101003.88;4108504;28;20042;-77
2022/10/29 06:49:08;;;;;;;18.98;9.95;;;14.40;99.90;;;13.72;100.00;101003.72;4119284;28;20561;-78
2022/10/29 06:51:09;;;;;;;15.13;9.43;;;14.40;99.90;;;13.70;100.00;101000.44;4121938;28;20101;-78
2022/10/29 06:53:13;;;;;;;19.85;10.15;;;14.40;99.90;;;13.68;100.00;101001.56;4104672;29;20035;-78
2022/10/29 06:55:14;;;;;;;21.90;11.18;;;14.40;99.90;;;13.71;100.00;100999.41;4120714;28;20514;-78
2022/10/29 06:57:14;;;;;;;19.33;10.60;;;14.40;99.90;;;13.78;100.00;101004.88;4120558;28;20035;-79
2022/10/29 06:59:15;;;;;;;26.30;12.32;;;14.50;99.90;;;13.87;100.00;101006.50;4104570;29;20031;-79
2022/10/29 07:01:16;;;;;;;30.38;12.32;;;14.50;99.90;;;13.94;100.00;101017.25;4121590;28;20031;-78
2022/10/29 07:03:19;;;;;;;25.35;12.38;;;14.60;99.90;;;14.04;100.00;101018.69;4121815;28;20494;-78
2022/10/29 07:05:20;;;;;;;22.38;11.40;;;14.70;99.90;;;14.06;100.00;101022.03;4120470;28;20034;-79
2022/10/29 07:07:21;;;;;;;26.33;13.23;;;14.70;99.90;;;14.19;100.00;101016.16;4104750;29;20042;-79
2022/10/29 07:09:22;;;;;;;26.67;13.70;;;14.80;99.90;;;14.28;100.00;101023.06;4120361;28;20030;-78
2022/10/29 07:11:23;;;;;;;18.85;11.00;;;14.90;99.90;;;14.26;100.00;101004.69;4121269;28;20487;-79
2022/10/29 07:13:24;;;;;;;27.52;12.30;;;14.90;99.90;;;14.31;100.00;101009.47;4120460;28;20110;-78
2022/10/29 07:15:26;;;;;;;19.35;11.90;;;14.90;99.90;;;14.34;100.00;101009.97;4121521;28;20089;-78
2022/10/29 07:17:26;;;;;;;21.65;12.20;;;15.00;99.90;;;14.34;100.00;100994.06;4121387;28;20434;-78
2022/10/29 07:19:27;;;;;;;22.85;11.30;;;15.00;99.90;;;14.46;100.00;101001.63;4121495;28;20031;-78
2022/10/29 07:21:28;;;;;;;23.10;12.10;;;15.10;99.90;;;14.48;100.00;101000.47;4121483;28;20046;-78
2022/10/29 07:23:29;;;;;;;19.20;11.43;;;15.20;99.90;;;14.55;100.00;101003.22;4121502;28;20026;-79
2022/10/29 07:25:31;;;;;;;22.63;10.90;;;15.20;99.90;;;14.59;100.00;101010.69;4120966;28;20062;-78
2022/10/29 07:27:32;;;;;;;24.27;12.07;;;15.20;99.90;;;14.62;100.00;101020.13;4121181;28;20031;-78
2022/10/29 07:29:34;;;;;;;20.75;12.55;;;15.30;99.90;;;14.66;100.00;101030.22;4104511;29;20034;-79
2022/10/29 07:31:35;;;;;;;20.75;12.15;;;15.30;99.90;;;14.72;100.00;101034.84;4103963;29;20026;-78
2022/10/29 07:33:35;;;;;;;21.08;11.65;;;15.40;99.90;;;14.77;100.00;101039.59;4120026;28;20031;-78
2022/10/29 07:35:36;;;;;;;17.63;10.73;;;15.40;99.90;;;14.76;100.00;101041.44;4121283;28;20031;-78
2022/10/29 07:37:37;;;;;;;19.77;10.52;;;15.40;99.90;;;14.80;100.00;101042.75;4120093;28;20027;-78
2022/10/29 07:39:38;;;;;;;18.40;10.55;;;15.40;99.90;;;14.81;100.00;101035.59;4120146;28;20058;-79
2022/10/29 07:41:39;;;;;;;16.48;9.80;;;15.50;99.90;;;14.87;100.00;101027.72;4120939;28;20031;-79
2022/10/29 07:43:40;;;;;;;18.33;11.40;;;15.50;99.90;;;14.88;100.00;101025.91;4120933;28;20042;-78
2022/10/29 07:45:48;;;;;;;20.88;10.60;;;15.50;99.90;;;14.92;100.00;101035.19;4120647;28;20031;-78
2022/10/29 07:48:02;;;;;;;16.15;9.85;;;15.60;99.90;;;14.92;100.00;101022.75;4120978;28;20048;-78
2022/10/29 07:50:03;;;;;;;17.15;10.55;;;15.60;99.90;;;14.91;100.00;101017.59;4120767;28;20070;-78
2022/10/29 07:52:04;;;;;;;15.73;8.93;;;15.60;99.90;;;14.96;100.00;101026.69;4121103;28;20498;-78
2022/10/29 07:54:05;;;;;;;16.58;8.85;;;15.60;99.90;;;14.99;100.00;101022.03;4121100;28;20039;-78
2022/10/29 07:56:06;;;;;;;17.90;10.02;;;15.60;99.90;;;14.98;100.00;101021.19;4120583;28;20031;-78
2022/10/29 07:58:11;;;;;;;16.15;9.18;;;15.70;99.90;;;15.04;100.00;101022.31;4120606;28;20033;-78
2022/10/29 08:00:13;;;;;;;15.65;8.75;;;15.70;99.90;;;15.07;100.00;101035.25;4120432;28;20023;-78
2022/10/29 08:02:14;;;;;;;20.67;10.65;;;15.70;99.90;;;15.05;100.00;101019.50;4120793;28;20023;-78
2022/10/29 08:04:15;;;;;;;15.15;9.20;;;15.70;99.90;;;15.09;100.00;101015.47;4120599;28;20029;-79
2022/10/29 08:06:16;;;;;;;15.23;8.27;;;15.70;99.90;;;15.09;100.00;100994.19;4120624;28;20031;-78
2022/10/29 08:08:17;;;;;;;13.88;8.13;;;15.70;99.90;;;15.07;100.00;100982.94;4119725;28;20069;-78
2022/10/29 08:10:18;;;;;;;11.63;8.15;;;15.80;99.90;;;15.09;100.00;100988.06;4120714;28;20022;-78
2022/10/29 08:12:20;;;;;;;16.88;9.82;;;15.80;99.90;;;15.17;100.00;101002.09;4119569;28;20054;-79
2022/10/29 08:14:20;;;;;;;17.40;10.43;;;15.80;99.90;;;15.20;100.00;101001.72;4120661;28;20097;-79
2022/10/29 08:16:21;;;;;;;15.73;8.68;;;15.80;99.90;;;15.26;100.00;101001.03;4120577;28;20501;-78
2022/10/29 08:18:22;;;;;;;20.38;10.07;;;15.90;99.90;;;15.33;100.00;100999.31;4119450;28;20034;-78
2022/10/29 08:20:26;;;;;;;16.75;9.45;;;16.00;99.90;;;15.41;100.00;100988.59;4120633;28;20019;-78
2022/10/29 08:22:29;;;;;;;12.30;8.23;;;16.00;99.90;;;15.48;100.00;100973.59;4119886;28;20498;-78
2022/10/29 08:24:30;;;;;;;19.90;10.18;;;16.10;99.90;;;15.49;100.00;100967.28;4120663;28;20069;-78